Time;durP1;ratioP1;P1;durP2;ratioP2;P2;SDS_P1;SDS_P2;PMS_P1;PMS_P2;Temp;Humidity;BMP_temperature;BMP_pressure;BME280_temperature;BME280_humidity;BME280_pressure;Samples;Min_cycle;Max_cycle;Signal;HPM_P1;HPM_P2
2022/05/24 00:02:07;;;;;;;10.35;9.25;;;15.40;99.90;;;;;;4668339;28;10000270;-75
2022/05/24 00:04:32;;;;;;;13.68;9.70;;;15.40;99.90;;;;;;5005425;28;20752;-75
2022/05/24 00:06:58;;;;;;;12.52;10.13;;;15.40;99.90;;;;;;5014420;28;20210;-75
2022/05/24 00:09:25;;;;;;;11.63;10.43;;;15.30;99.90;;;;;;5019638;28;20064;-75
2022/05/24 00:11:51;;;;;;;13.35;11.23;;;15.30;99.90;;;;;;5013659;28;20128;-74
2022/05/24 00:15:19;;;;;;;14.25;11.75;;;15.30;99.90;;;;;;5012974;28;20031;-74
2022/05/24 00:17:03;;;;;;;15.32;13.40;;;15.30;99.90;;;;;;5017620;28;20034;-75
2022/05/24 00:19:29;;;;;;;17.80;12.90;;;15.20;99.90;;;;;;5009806;28;20037;-75
2022/05/24 00:21:54;;;;;;;16.00;14.13;;;15.10;99.90;;;;;;5013200;28;20099;-74
2022/05/24 00:24:21;;;;;;;18.05;14.73;;;15.00;99.90;;;;;;5021873;28;20083;-74
2022/05/24 00:26:47;;;;;;;15.65;13.95;;;15.00;99.90;;;;;;5017873;28;20041;-73
2022/05/24 00:29:13;;;;;;;17.42;15.65;;;14.90;99.90;;;;;;5014016;28;20030;-74
2022/05/24 00:31:38;;;;;;;19.83;15.93;;;14.80;99.90;;;;;;5018340;28;20091;-73
2022/05/24 00:34:04;;;;;;;18.50;15.93;;;14.80;99.90;;;;;;5015294;28;20385;-74
2022/05/24 00:36:30;;;;;;;18.52;16.42;;;14.70;99.90;;;;;;5011137;28;20152;-73
2022/05/24 00:38:56;;;;;;;18.48;16.20;;;14.60;99.90;;;;;;5008222;28;20041;-76
2022/05/24 00:41:41;;;;;;;18.50;16.48;;;14.60;99.90;;;;;;5029593;28;20496;-76
2022/05/24 00:44:19;;;;;;;19.95;16.85;;;14.60;99.90;;;;;;5024169;28;20026;-75
2022/05/24 00:46:50;;;;;;;22.85;17.33;;;14.50;99.90;;;;;;5026700;28;23260;-73
2022/05/24 00:49:35;;;;;;;21.80;17.02;;;14.40;99.90;;;;;;5015330;28;20029;-74
2022/05/24 00:52:25;;;;;;;18.48;16.50;;;14.40;99.90;;;;;;5029643;28;20029;-75
2022/05/24 00:54:51;;;;;;;18.63;15.63;;;14.40;99.90;;;;;;5019212;28;20033;-74
2022/05/24 00:57:29;;;;;;;18.00;15.82;;;14.30;99.90;;;;;;5023931;28;20035;-74
2022/05/24 01:00:01;;;;;;;19.55;15.50;;;14.30;99.90;;;;;;5028246;28;20026;-73
2022/05/24 01:02:26;;;;;;;19.77;16.08;;;14.30;99.90;;;;;;5022566;28;20060;-73
2022/05/24 01:04:52;;;;;;;21.55;15.45;;;14.40;99.90;;;;;;5015500;28;20478;-73
2022/05/24 01:07:18;;;;;;;20.85;16.65;;;14.40;99.90;;;;;;5015264;28;20029;-75
2022/05/24 01:09:47;;;;;;;22.27;16.40;;;14.40;99.90;;;;;;5028086;28;20033;-76
2022/05/24 01:12:19;;;;;;;22.55;16.30;;;14.50;99.90;;;;;;5017771;28;20153;-75
2022/05/24 01:14:45;;;;;;;18.50;15.73;;;14.50;99.90;;;;;;5022426;28;20037;-73
2022/05/24 01:17:11;;;;;;;17.52;15.48;;;14.50;99.90;;;;;;5016097;28;20068;-75
2022/05/24 01:19:44;;;;;;;19.33;16.08;;;14.50;99.90;;;;;;5010844;28;20034;-75
2022/05/24 01:22:37;;;;;;;19.85;17.23;;;14.40;99.90;;;;;;5027192;28;20029;-76
2022/05/24 01:25:33;;;;;;;21.00;17.98;;;14.40;99.90;;;;;;5023163;28;20436;-76
2022/05/24 01:28:04;;;;;;;21.30;16.27;;;14.40;99.90;;;;;;5013087;28;20053;-76
2022/05/24 01:30:29;;;;;;;20.13;17.05;;;14.40;99.90;;;;;;5020848;28;20042;-75
2022/05/24 01:38:24;;;;;;;22.02;17.13;;;14.50;99.90;;;;;;5014408;28;20096;-75
2022/05/24 01:40:53;;;;;;;21.38;17.52;;;14.50;99.90;;;;;;5026483;28;20053;-73
2022/05/24 01:43:22;;;;;;;21.85;18.90;;;14.50;99.90;;;;;;5020295;28;20397;-74
2022/05/24 01:45:55;;;;;;;23.35;19.70;;;14.60;99.90;;;;;;5003444;28;20053;-74
2022/05/24 01:48:27;;;;;;;24.48;20.08;;;14.60;99.90;;;;;;5017950;28;20026;-73
2022/05/24 01:50:55;;;;;;;26.95;21.17;;;14.60;99.90;;;;;;5015287;28;20045;-73
2022/05/24 01:53:27;;;;;;;23.40;20.08;;;14.60;99.90;;;;;;5008956;28;20141;-73
2022/05/24 01:55:57;;;;;;;24.20;20.47;;;14.70;99.90;;;;;;5009187;28;20056;-73
2022/05/24 01:58:26;;;;;;;23.75;21.25;;;14.70;99.90;;;;;;5012498;28;20033;-75
2022/05/24 02:01:34;;;;;;;23.85;19.55;;;14.60;99.90;;;;;;5016437;28;20060;-74
2022/05/24 02:04:04;;;;;;;25.05;20.02;;;14.70;99.90;;;;;;5021426;28;20867;-75
2022/05/24 02:06:30;;;;;;;24.23;20.50;;;14.70;99.90;;;;;;5022378;28;20496;-75
2022/05/24 02:08:57;;;;;;;23.48;20.40;;;14.70;99.90;;;;;;5023688;28;20040;-74
2022/05/24 02:11:29;;;;;;;25.05;19.95;;;14.70;99.90;;;;;;5019179;28;20056;-74
2022/05/24 02:14:11;;;;;;;23.95;20.48;;;14.70;99.90;;;;;;5022976;28;20112;-74
2022/05/24 02:16:46;;;;;;;23.83;19.42;;;14.70;99.90;;;;;;5026705;28;20393;-74
2022/05/24 02:19:14;;;;;;;24.40;18.95;;;14.60;99.90;;;;;;5009097;28;20703;-75
2022/05/24 02:21:42;;;;;;;23.40;20.05;;;14.60;99.90;;;;;;5009962;28;20034;-75
2022/05/24 02:24:16;;;;;;;25.80;20.92;;;14.60;99.90;;;;;;5018170;28;20025;-74
2022/05/24 02:26:42;;;;;;;25.88;19.40;;;14.50;99.90;;;;;;5008461;28;20023;-74
2022/05/24 02:29:09;;;;;;;25.10;20.95;;;14.50;99.90;;;;;;5008958;28;20040;-75
2022/05/24 02:31:35;;;;;;;24.73;21.42;;;14.50;99.90;;;;;;5027033;28;20037;-74
2022/05/24 02:34:01;;;;;;;26.83;21.20;;;14.40;99.90;;;;;;5015291;28;20025;-74
2022/05/24 02:36:27;;;;;;;28.65;22.05;;;14.40;99.90;;;;;;5007093;28;20033;-74
2022/05/24 02:38:52;;;;;;;26.08;20.48;;;14.40;99.90;;;;;;5018073;28;20076;-73
2022/05/24 02:41:36;;;;;;;27.40;21.95;;;14.40;99.90;;;;;;5026941;28;20489;-74
2022/05/24 02:44:21;;;;;;;30.45;22.00;;;14.40;99.90;;;;;;5028794;28;20108;-74
2022/05/24 02:46:48;;;;;;;26.13;20.88;;;14.50;99.90;;;;;;5001143;28;20056;-73
2022/05/24 02:49:13;;;;;;;25.50;20.35;;;14.50;99.90;;;;;;5001939;28;20034;-73
2022/05/24 02:51:41;;;;;;;24.88;20.77;;;14.40;99.90;;;;;;5019980;28;20039;-75
2022/05/24 02:54:07;;;;;;;27.00;21.17;;;14.50;99.90;;;;;;5003694;28;20479;-74
2022/05/24 02:56:34;;;;;;;27.08;21.45;;;14.40;99.90;;;;;;5018640;28;20103;-75
2022/05/24 02:59:00;;;;;;;26.88;20.70;;;14.40;99.90;;;;;;5014966;28;20501;-73
2022/05/24 03:01:28;;;;;;;24.92;20.35;;;14.30;99.90;;;;;;5017356;28;20678;-73
2022/05/24 03:03:55;;;;;;;31.67;20.92;;;14.30;99.90;;;;;;5007096;28;20473;-73
2022/05/24 03:06:22;;;;;;;25.65;20.70;;;14.30;99.90;;;;;;5007296;28;20038;-73
2022/05/24 03:14:14;;;;;;;23.95;19.05;;;14.20;99.90;;;;;;5005052;28;20128;-73
2022/05/24 03:14:21;;;;;;;25.63;19.15;;;14.20;99.90;;;;;;5008480;28;20053;-74
2022/05/24 03:16:54;;;;;;;23.52;19.50;;;14.20;99.90;;;;;;5015319;28;20033;-74
2022/05/24 03:19:21;;;;;;;30.48;19.98;;;14.20;99.90;;;;;;5011820;28;20021;-73
2022/05/24 03:21:47;;;;;;;25.58;19.38;;;14.20;99.90;;;;;;5006678;28;20034;-73
2022/05/24 03:24:13;;;;;;;21.80;17.83;;;14.20;99.90;;;;;;5013308;28;20029;-74
2022/05/24 03:26:38;;;;;;;24.95;19.02;;;14.20;99.90;;;;;;5005524;28;20703;-74
2022/05/24 03:29:05;;;;;;;22.10;17.67;;;14.30;99.90;;;;;;5011517;28;20037;-74
2022/05/24 03:31:31;;;;;;;20.85;17.35;;;14.20;99.90;;;;;;5012167;28;20053;-73
2022/05/24 03:33:57;;;;;;;19.30;16.77;;;14.30;99.90;;;;;;5025340;28;20452;-73
2022/05/24 03:36:23;;;;;;;22.02;17.13;;;14.40;99.90;;;;;;5015780;28;20038;-74
2022/05/24 03:38:48;;;;;;;22.92;17.50;;;14.40;99.90;;;;;;5008027;28;20022;-73
2022/05/24 03:41:14;;;;;;;20.08;16.27;;;14.40;99.90;;;;;;5016791;28;20025;-74
2022/05/24 03:43:39;;;;;;;22.02;18.00;;;14.30;99.90;;;;;;5006356;28;20466;-74
2022/05/24 03:46:09;;;;;;;24.25;18.92;;;14.30;99.90;;;;;;4999824;28;20229;-74
2022/05/24 03:48:35;;;;;;;22.02;17.92;;;14.30;99.90;;;;;;5015881;28;20034;-75
2022/05/24 03:51:02;;;;;;;22.52;18.70;;;14.30;99.90;;;;;;5016560;28;20033;-73
2022/05/24 03:53:28;;;;;;;22.67;18.58;;;14.30;99.90;;;;;;5015290;28;20398;-73
2022/05/24 03:55:54;;;;;;;25.02;18.85;;;14.30;99.90;;;;;;5027091;28;20071;-74
2022/05/24 03:58:20;;;;;;;27.08;19.60;;;14.30;99.90;;;;;;5023484;28;20533;-75
2022/05/24 04:00:46;;;;;;;23.98;19.63;;;14.30;99.90;;;;;;5008176;28;20038;-75
2022/05/24 04:03:12;;;;;;;22.02;18.13;;;14.30;99.90;;;;;;5006919;28;20022;-74
2022/05/24 04:05:38;;;;;;;22.45;18.05;;;14.30;99.90;;;;;;5008031;28;20045;-74
2022/05/24 04:08:05;;;;;;;24.55;18.45;;;14.30;99.90;;;;;;5009104;28;20029;-73
2022/05/24 04:10:31;;;;;;;23.10;18.95;;;14.30;99.90;;;;;;5014243;28;20473;-73
2022/05/24 04:12:57;;;;;;;23.50;18.67;;;14.30;99.90;;;;;;5016060;28;20037;-74
2022/05/24 04:15:24;;;;;;;26.80;19.33;;;14.30;99.90;;;;;;5007042;28;20092;-74
2022/05/24 04:17:52;;;;;;;21.08;18.15;;;14.30;99.90;;;;;;5006000;28;20034;-73
2022/05/24 04:20:19;;;;;;;22.85;18.17;;;14.30;99.90;;;;;;5011235;28;20029;-75
2022/05/24 04:22:44;;;;;;;23.38;18.33;;;14.30;99.90;;;;;;4313649;28;10000837;-75
2022/05/24 04:25:13;;;;;;;23.38;18.05;;;14.30;99.90;;;;;;5001809;28;20037;-74
2022/05/24 04:27:39;;;;;;;23.48;18.98;;;14.30;99.90;;;;;;5004301;28;20692;-73
2022/05/24 04:30:06;;;;;;;23.30;18.15;;;14.40;99.90;;;;;;4988220;28;20034;-73
2022/05/24 04:32:32;;;;;;;25.02;19.27;;;14.40;99.90;;;;;;5017963;28;20029;-73
2022/05/24 04:34:57;;;;;;;24.10;18.38;;;14.40;99.90;;;;;;5010840;28;20040;-75
2022/05/24 04:37:23;;;;;;;22.17;18.00;;;14.40;99.90;;;;;;5003294;28;20034;-74
2022/05/24 04:39:49;;;;;;;23.50;18.38;;;14.40;99.90;;;;;;5000845;28;20033;-73
2022/05/24 04:42:24;;;;;;;22.52;18.27;;;14.40;99.90;;;;;;5003930;28;20272;-73
2022/05/24 04:44:58;;;;;;;22.23;18.15;;;14.50;99.90;;;;;;5004489;28;20032;-75
2022/05/24 04:47:28;;;;;;;22.17;17.83;;;14.50;99.90;;;;;;5005062;28;20046;-74
2022/05/24 04:49:55;;;;;;;21.50;17.73;;;14.50;99.90;;;;;;5009555;28;20105;-74
2022/05/24 04:52:26;;;;;;;24.60;18.25;;;14.50;99.90;;;;;;4998862;28;20030;-74
2022/05/24 04:54:52;;;;;;;25.33;18.70;;;14.50;99.90;;;;;;5006385;28;20037;-74
2022/05/24 04:57:19;;;;;;;21.27;17.52;;;14.50;99.90;;;;;;5010060;28;24449;-74
2022/05/24 04:59:45;;;;;;;25.23;19.33;;;14.50;99.90;;;;;;5013553;28;20172;-74
2022/05/24 05:02:12;;;;;;;19.65;16.58;;;14.40;99.90;;;;;;5000356;28;20112;-72
2022/05/24 05:04:37;;;;;;;22.50;17.77;;;14.40;99.90;;;;;;5006922;28;20032;-73
2022/05/24 05:07:04;;;;;;;23.90;16.50;;;14.50;99.90;;;;;;5015232;28;20025;-74
2022/05/24 05:09:34;;;;;;;20.13;15.85;;;14.60;99.90;;;;;;5002528;28;20077;-73
2022/05/24 05:12:08;;;;;;;22.98;16.50;;;14.70;99.90;;;;;;5018107;28;20073;-73
2022/05/24 05:14:35;;;;;;;21.92;15.98;;;14.90;99.90;;;;;;5023982;28;20489;-73
2022/05/24 05:17:02;;;;;;;19.17;15.85;;;14.90;99.90;;;;;;5008194;28;20077;-74
2022/05/24 05:19:28;;;;;;;20.77;16.05;;;15.00;99.90;;;;;;5010141;28;20728;-73
2022/05/24 05:21:54;;;;;;;24.02;16.25;;;15.10;99.90;;;;;;5008325;28;20677;-74
2022/05/24 05:24:20;;;;;;;20.58;14.70;;;15.10;99.90;;;;;;5009171;28;20030;-74
2022/05/24 05:26:46;;;;;;;19.75;15.40;;;15.10;99.90;;;;;;4997075;28;20825;-74
2022/05/24 05:29:11;;;;;;;19.65;15.57;;;15.20;99.90;;;;;;5008479;28;20037;-75
2022/05/24 05:31:37;;;;;;;19.23;16.08;;;15.20;99.90;;;;;;5019393;28;22202;-73
2022/05/24 05:34:03;;;;;;;17.98;15.45;;;15.20;99.90;;;;;;5014662;28;20080;-74
2022/05/24 05:36:31;;;;;;;20.05;15.57;;;15.20;99.90;;;;;;5011363;28;20397;-74
2022/05/24 05:38:57;;;;;;;20.17;14.77;;;15.30;99.90;;;;;;5007067;28;20454;-74
2022/05/24 05:41:27;;;;;;;19.38;14.48;;;15.20;99.90;;;;;;5028603;28;20465;-74
2022/05/24 05:43:54;;;;;;;18.20;14.10;;;15.20;99.90;;;;;;5012202;28;20033;-74
2022/05/24 05:46:19;;;;;;;19.20;15.00;;;15.20;99.90;;;;;;5006571;28;20036;-72
2022/05/24 05:48:46;;;;;;;20.63;14.27;;;15.20;99.90;;;;;;5011809;28;20026;-74
2022/05/24 05:51:14;;;;;;;18.85;14.20;;;15.20;99.90;;;;;;5021816;28;20807;-75
2022/05/24 05:53:40;;;;;;;18.10;14.35;;;15.20;99.90;;;;;;5022339;28;20037;-74
2022/05/24 05:56:12;;;;;;;17.98;12.95;;;15.20;99.90;;;;;;5030000;28;20088;-74
2022/05/24 05:58:38;;;;;;;18.95;13.23;;;15.20;99.90;;;;;;5023362;28;20029;-75
2022/05/24 06:01:03;;;;;;;14.68;12.15;;;15.30;99.90;;;;;;5005484;28;20481;-74
2022/05/24 06:03:30;;;;;;;15.43;13.05;;;15.20;99.90;;;;;;5017464;28;20034;-74
2022/05/24 06:06:00;;;;;;;18.58;10.93;;;15.30;99.90;;;;;;5018764;28;20477;-74
2022/05/24 06:08:26;;;;;;;15.07;10.55;;;15.30;99.90;;;;;;5012515;28;20041;-72
2022/05/24 06:10:53;;;;;;;15.20;9.70;;;15.50;99.90;;;;;;5011194;28;20053;-72
2022/05/24 06:13:19;;;;;;;11.45;9.85;;;15.50;99.90;;;;;;5018231;28;20080;-73
2022/05/24 06:15:48;;;;;;;12.13;9.30;;;15.60;99.90;;;;;;5013388;28;20038;-74
2022/05/24 06:18:14;;;;;;;10.85;8.05;;;15.60;99.90;;;;;;5004433;28;20040;-73
2022/05/24 06:20:40;;;;;;;10.50;8.65;;;15.60;99.90;;;;;;5010220;28;20022;-72
2022/05/24 06:23:06;;;;;;;11.23;8.43;;;15.60;99.90;;;;;;5014580;28;20105;-72
2022/05/24 06:25:32;;;;;;;9.77;8.07;;;15.60;99.90;;;;;;4992619;28;20442;-74
2022/05/24 06:27:58;;;;;;;8.32;7.07;;;15.70;99.90;;;;;;5018318;28;20025;-72
2022/05/24 06:30:25;;;;;;;7.93;7.10;;;15.70;99.90;;;;;;5024141;28;20029;-72
2022/05/24 06:32:51;;;;;;;10.80;7.57;;;15.60;99.90;;;;;;5023059;28;20037;-73
2022/05/24 06:35:19;;;;;;;8.18;7.38;;;15.60;99.90;;;;;;5006682;28;20044;-72
2022/05/24 06:37:45;;;;;;;9.43;7.07;;;15.50;99.90;;;;;;5009231;28;20029;-72
2022/05/24 06:40:13;;;;;;;9.57;7.18;;;15.50;99.90;;;;;;5023277;28;20366;-74
2022/05/24 06:42:39;;;;;;;8.20;7.32;;;15.40;99.90;;;;;;5012124;28;20283;-74
2022/05/24 06:45:05;;;;;;;8.40;7.47;;;15.40;99.90;;;;;;5027722;28;20470;-73
2022/05/24 06:47:32;;;;;;;10.25;8.13;;;15.30;99.90;;;;;;5025706;28;20021;-73
2022/05/24 06:49:58;;;;;;;9.95;8.05;;;15.30;99.90;;;;;;5006072;28;20026;-72
2022/05/24 06:52:24;;;;;;;12.85;9.15;;;15.20;99.90;;;;;;5006198;28;20033;-73
2022/05/24 06:54:50;;;;;;;11.50;8.60;;;15.10;99.90;;;;;;5008232;28;20547;-72
2022/05/24 06:57:15;;;;;;;11.70;9.05;;;15.00;99.90;;;;;;5011557;28;20064;-73
2022/05/24 07:02:26;;;;;;;12.85;8.93;;;14.90;99.90;;;;;;5018385;28;20044;-74
2022/05/24 07:05:17;;;;;;;15.02;9.50;;;14.90;99.90;;;;;;5020251;28;20033;-72
2022/05/24 07:07:43;;;;;;;11.02;8.70;;;14.90;99.90;;;;;;5014386;28;20038;-74
2022/05/24 07:10:12;;;;;;;10.48;7.97;;;14.80;99.90;;;;;;5008427;28;20438;-74
2022/05/24 07:12:38;;;;;;;10.40;8.40;;;14.80;99.90;;;;;;4989380;28;20066;-74
2022/05/24 07:15:04;;;;;;;12.23;8.80;;;14.70;99.90;;;;;;4989306;28;20601;-73
2022/05/24 07:17:30;;;;;;;12.32;9.00;;;14.70;99.90;;;;;;4983745;28;20049;-73
2022/05/24 07:19:55;;;;;;;12.20;9.30;;;14.70;99.90;;;;;;4967666;28;20039;-74
2022/05/24 07:22:21;;;;;;;13.10;9.25;;;14.80;99.90;;;;;;4990425;28;20033;-72
2022/05/24 07:24:49;;;;;;;13.02;9.20;;;14.80;99.90;;;;;;4991595;28;20026;-73
2022/05/24 07:27:17;;;;;;;11.27;8.90;;;14.90;99.90;;;;;;4987542;28;20038;-74
2022/05/24 07:29:43;;;;;;;11.50;8.05;;;14.90;99.90;;;;;;4981440;28;20438;-72
2022/05/24 07:32:09;;;;;;;9.10;7.72;;;15.00;99.90;;;;;;4286166;28;10000952;-74
2022/05/24 07:34:36;;;;;;;11.00;7.82;;;15.10;99.90;;;;;;4967221;28;20100;-72
2022/05/24 07:37:04;;;;;;;7.88;7.05;;;15.20;99.90;;;;;;4981574;28;20061;-73
2022/05/24 07:39:30;;;;;;;7.05;6.35;;;15.20;99.90;;;;;;4969636;28;20022;-74
2022/05/24 07:47:30;;;;;;;4.53;4.07;;;15.20;99.90;;;;;;4982098;28;20045;-73
2022/05/24 07:49:56;;;;;;;1.40;1.30;;;15.20;99.90;;;;;;4977074;28;20093;-73
2022/05/24 07:52:21;;;;;;;4.07;0.80;;;15.00;99.90;;;;;;4975522;28;20042;-74
2022/05/24 07:54:47;;;;;;;1.83;0.70;;;14.70;99.90;;;;;;4981134;28;20038;-73
2022/05/24 07:57:13;;;;;;;0.75;0.60;;;14.50;99.90;;;;;;4979033;28;20066;-75
2022/05/24 07:59:42;;;;;;;3.40;0.80;;;14.30;99.90;;;;;;4972381;28;20113;-74
2022/05/24 08:02:08;;;;;;;4.65;0.95;;;14.30;99.90;;;;;;4979666;28;20102;-74
2022/05/24 08:04:34;;;;;;;1.75;0.88;;;14.20;99.90;;;;;;4983063;28;20168;-73
2022/05/24 08:07:00;;;;;;;3.97;1.15;;;14.30;99.90;;;;;;4979076;28;20122;-71
2022/05/24 08:09:26;;;;;;;3.47;1.10;;;14.30;99.90;;;;;;4983905;28;20042;-73
2022/05/24 08:11:52;;;;;;;3.42;1.75;;;14.40;99.90;;;;;;5004294;28;20079;-72
2022/05/24 08:14:17;;;;;;;1.95;1.25;;;14.50;99.90;;;;;;5008431;28;20481;-72
2022/05/24 08:16:44;;;;;;;1.35;1.00;;;14.60;99.90;;;;;;5001758;28;20095;-72
2022/05/24 08:19:09;;;;;;;2.92;1.20;;;14.70;99.90;;;;;;5003869;28;20034;-72
2022/05/24 08:21:35;;;;;;;1.63;1.00;;;14.70;99.90;;;;;;5011160;28;20025;-71
2022/05/24 08:24:01;;;;;;;2.45;1.02;;;14.70;99.90;;;;;;5019972;28;20040;-72
2022/05/24 08:26:27;;;;;;;2.10;1.05;;;14.70;99.90;;;;;;5009484;28;20312;-74
2022/05/24 08:28:53;;;;;;;1.70;1.00;;;14.80;99.90;;;;;;5002753;28;20092;-73
2022/05/24 08:31:19;;;;;;;3.03;1.08;;;14.90;99.90;;;;;;5002071;28;20561;-74
2022/05/24 08:33:46;;;;;;;1.35;1.05;;;15.00;99.90;;;;;;4996616;28;20034;-73
2022/05/24 08:36:13;;;;;;;4.63;1.20;;;15.20;99.90;;;;;;5015491;28;20059;-73
2022/05/24 08:38:40;;;;;;;1.55;1.05;;;15.50;99.90;;;;;;5005702;28;20486;-72
2022/05/24 08:41:12;;;;;;;2.60;1.08;;;15.60;99.90;;;;;;5013450;28;20033;-72
2022/05/24 08:43:59;;;;;;;2.30;1.10;;;16.00;99.90;;;;;;5002493;28;20025;-71
2022/05/24 08:49:21;;;;;;;2.42;1.00;;;16.20;99.90;;;;;;5006252;28;20169;-72
2022/05/24 08:51:58;;;;;;;1.63;1.08;;;16.50;99.90;;;;;;5000015;28;20478;-73
2022/05/24 08:54:45;;;;;;;4.03;1.02;;;16.70;99.90;;;;;;5007068;28;20418;-75
2022/05/24 08:57:16;;;;;;;1.33;0.80;;;16.90;99.90;;;;;;5007663;28;20037;-74
2022/05/24 09:00:11;;;;;;;1.77;0.90;;;17.00;99.90;;;;;;5018439;28;20030;-73
2022/05/24 09:02:41;;;;;;;2.78;0.95;;;17.00;99.90;;;;;;5003991;28;20065;-73
2022/05/24 09:05:20;;;;;;;1.25;1.00;;;17.10;99.90;;;;;;5007847;28;20060;-73
2022/05/24 09:08:04;;;;;;;0.82;0.68;;;17.20;99.90;;;;;;5000488;28;20046;-73
2022/05/24 09:10:53;;;;;;;1.88;1.05;;;17.40;99.90;;;;;;5006390;28;20026;-73
2022/05/24 09:13:51;;;;;;;0.85;0.70;;;17.70;99.90;;;;;;4987918;28;20034;-73
2022/05/24 09:16:17;;;;;;;4.13;1.00;;;17.70;99.90;;;;;;4985255;28;20493;-73
2022/05/24 09:19:23;;;;;;;0.93;0.80;;;17.30;99.90;;;;;;5003273;28;20034;-73
2022/05/24 09:21:52;;;;;;;0.88;0.60;;;17.10;99.90;;;;;;4999872;28;20574;-72
2022/05/24 09:24:26;;;;;;;1.85;0.70;;;16.70;99.90;;;;;;4984766;28;20156;-71
2022/05/24 09:27:22;;;;;;;4.22;0.70;;;16.30;99.90;;;;;;4982845;28;20690;-72
2022/05/24 09:30:20;;;;;;;0.70;0.65;;;16.20;99.90;;;;;;4980359;28;20050;-73
2022/05/24 09:32:49;;;;;;;1.92;0.80;;;16.10;99.90;;;;;;4989473;28;20037;-73
2022/05/24 09:35:20;;;;;;;1.65;0.90;;;15.90;99.90;;;;;;4989353;28;20085;-73
2022/05/24 09:38:08;;;;;;;2.40;0.80;;;15.80;99.90;;;;;;4990753;28;20036;-72
2022/05/24 09:41:04;;;;;;;1.40;0.60;;;15.90;99.90;;;;;;4977437;28;20089;-72
2022/05/24 09:43:36;;;;;;;3.20;0.60;;;16.30;99.90;;;;;;4997832;28;20030;-72
2022/05/24 09:46:35;;;;;;;1.85;0.70;;;16.90;99.90;;;;;;4992605;28;20394;-72
2022/05/24 09:49:17;;;;;;;0.85;0.60;;;17.40;99.90;;;;;;4933249;28;20054;-72
2022/05/24 09:51:43;;;;;;;0.73;0.50;;;17.90;99.90;;;;;;4983036;28;20686;-73
2022/05/24 09:54:18;;;;;;;1.95;0.63;;;18.20;99.90;;;;;;4991246;28;20034;-72
2022/05/24 09:57:08;;;;;;;1.15;0.70;;;18.50;99.90;;;;;;4991363;28;20117;-73
2022/05/24 09:59:35;;;;;;;2.38;0.70;;;18.70;99.90;;;;;;4989518;28;20041;-72
2022/05/24 10:02:02;;;;;;;1.27;0.40;;;18.90;99.90;;;;;;4999136;28;20022;-72
2022/05/24 10:04:28;;;;;;;1.48;0.60;;;19.00;99.90;;;;;;4999459;28;20030;-72
2022/05/24 10:07:01;;;;;;;3.58;0.60;;;19.00;99.90;;;;;;4991255;28;20438;-72
2022/05/24 10:09:40;;;;;;;2.05;0.43;;;19.10;99.90;;;;;;4995619;28;20065;-72
2022/05/24 10:12:16;;;;;;;2.05;0.40;;;19.10;99.90;;;;;;5003408;28;20080;-72
2022/05/24 10:15:02;;;;;;;5.15;0.60;;;18.90;99.90;;;;;;5005948;28;20609;-73
2022/05/24 10:17:52;;;;;;;13.80;0.85;;;18.60;99.90;;;;;;5009248;28;20416;-72
2022/05/24 10:20:32;;;;;;;1.65;0.45;;;18.30;99.90;;;;;;5007701;28;20057;-73
2022/05/24 10:23:39;;;;;;;2.25;0.43;;;18.20;99.90;;;;;;5007548;28;20026;-73
2022/05/24 10:26:29;;;;;;;2.08;0.50;;;18.10;99.90;;;;;;4987133;28;20030;-73
2022/05/24 10:29:13;;;;;;;3.67;0.60;;;18.20;99.90;;;;;;5010849;28;20123;-72
2022/05/24 10:31:54;;;;;;;2.42;0.57;;;18.50;99.90;;;;;;4998593;28;20125;-74
2022/05/24 10:38:17;;;;;;;7.20;0.75;;;19.10;99.90;;;;;;5008131;28;20052;-73
2022/05/24 10:41:05;;;;;;;1.40;0.52;;;19.10;99.90;;;;;;4982926;28;20459;-73
2022/05/24 10:43:48;;;;;;;1.10;0.50;;;18.80;99.90;;;;;;5010513;28;20036;-73
2022/05/24 10:46:16;;;;;;;0.98;0.60;;;18.60;99.90;;;;;;5005269;28;20516;-72
2022/05/24 10:49:16;;;;;;;1.20;0.75;;;18.50;99.90;;;;;;5001326;28;20041;-72
2022/05/24 10:51:51;;;;;;;1.25;0.52;;;18.30;99.90;;;;;;4993527;28;20662;-73
2022/05/24 10:54:36;;;;;;;2.35;0.70;;;18.30;99.90;;;;;;5000995;28;20128;-72
2022/05/24 10:57:07;;;;;;;1.48;0.63;;;18.20;99.90;;;;;;4308666;28;10000955;-73
2022/05/24 10:59:45;;;;;;;3.65;1.00;;;18.40;99.90;;;;;;5014202;28;20042;-72
2022/05/24 11:02:20;;;;;;;2.47;0.70;;;18.80;99.90;;;;;;5010599;28;20046;-72
2022/05/24 11:05:18;;;;;;;2.05;0.50;;;19.10;99.90;;;;;;5022173;28;20033;-72
2022/05/24 11:07:48;;;;;;;2.60;0.57;;;19.10;99.90;;;;;;5016472;28;20042;-73
2022/05/24 11:10:25;;;;;;;4.00;0.73;;;19.30;99.90;;;;;;5010149;28;20116;-73
2022/05/24 11:12:55;;;;;;;2.10;0.50;;;19.90;99.90;;;;;;5008989;28;20053;-73
2022/05/24 11:15:28;;;;;;;1.50;0.50;;;19.70;99.90;;;;;;5013584;28;20079;-73
2022/05/24 11:17:54;;;;;;;4.32;0.60;;;19.90;99.90;;;;;;5012144;28;20042;-74
2022/05/24 11:20:26;;;;;;;4.15;0.77;;;20.10;99.90;;;;;;5011400;28;20812;-72
2022/05/24 11:23:11;;;;;;;1.80;0.60;;;20.20;99.90;;;;;;5015875;28;20107;-73
2022/05/24 11:25:42;;;;;;;3.33;0.68;;;20.40;99.90;;;;;;5021065;28;20658;-73
2022/05/24 11:28:14;;;;;;;3.50;0.50;;;20.50;99.90;;;;;;5005198;28;20113;-73
2022/05/24 11:30:41;;;;;;;0.75;0.50;;;20.30;99.90;;;;;;5002677;28;20462;-73
2022/05/24 11:33:11;;;;;;;1.65;0.40;;;20.10;99.90;;;;;;4997087;28;20044;-73
2022/05/24 11:35:53;;;;;;;1.55;0.47;;;20.10;99.90;;;;;;5009018;28;20038;-73
2022/05/24 11:38:22;;;;;;;0.75;0.40;;;20.20;99.90;;;;;;5006965;28;20057;-73
2022/05/24 11:41:01;;;;;;;2.45;0.68;;;20.30;99.90;;;;;;5002373;28;20038;-73
2022/05/24 11:43:36;;;;;;;1.40;0.40;;;20.00;99.90;;;;;;5003085;28;20266;-72
2022/05/24 11:46:07;;;;;;;2.15;0.30;;;20.40;98.90;;;;;;5011175;28;20030;-74
2022/05/24 11:48:50;;;;;;;2.45;0.30;;;20.50;99.90;;;;;;5004586;28;20246;-73
2022/05/24 11:51:31;;;;;;;3.95;0.32;;;20.60;94.10;;;;;;4999130;28;20301;-74
2022/05/24 11:53:58;;;;;;;3.50;0.40;;;20.70;95.30;;;;;;5006710;28;20041;-73
2022/05/24 11:56:24;;;;;;;1.48;0.30;;;20.80;97.60;;;;;;5007269;28;20040;-72
2022/05/24 11:59:00;;;;;;;1.63;0.30;;;20.90;97.50;;;;;;4996779;28;20433;-72
2022/05/24 12:01:55;;;;;;;2.33;0.40;;;20.80;95.70;;;;;;5009060;28;20060;-72
2022/05/24 12:09:58;;;;;;;1.30;0.50;;;20.90;93.20;;;;;;5011442;28;20780;-73
2022/05/24 12:12:30;;;;;;;1.77;0.40;;;21.40;94.90;;;;;;5006572;28;20128;-73
2022/05/24 12:15:46;;;;;;;4.07;0.40;;;21.70;92.90;;;;;;4999652;28;20267;-73
2022/05/24 12:18:17;;;;;;;2.88;0.65;;;22.00;90.00;;;;;;4996955;28;20033;-74
2022/05/24 12:20:42;;;;;;;1.98;0.40;;;22.20;87.80;;;;;;5003989;28;20029;-74
2022/05/24 12:23:09;;;;;;;1.33;0.30;;;22.30;88.20;;;;;;5003550;28;20034;-74
2022/05/24 12:25:53;;;;;;;0.40;0.28;;;22.20;83.10;;;;;;5002347;28;20552;-74
2022/05/24 12:28:20;;;;;;;0.73;0.35;;;22.30;84.90;;;;;;5007465;28;20153;-74
2022/05/24 12:30:49;;;;;;;4.47;0.90;;;22.50;84.60;;;;;;5006373;28;20049;-73
2022/05/24 12:33:21;;;;;;;2.55;0.52;;;22.90;82.10;;;;;;5003307;28;20127;-74
2022/05/24 12:36:18;;;;;;;2.53;0.45;;;23.10;80.30;;;;;;5003370;28;20044;-74
2022/05/24 12:38:50;;;;;;;2.10;0.43;;;23.10;73.70;;;;;;4982339;28;20284;-74
2022/05/24 12:41:27;;;;;;;1.30;0.47;;;23.00;74.60;;;;;;5000519;28;20033;-73
2022/05/24 12:44:10;;;;;;;3.00;0.60;;;22.80;74.60;;;;;;5008231;28;20037;-74
2022/05/24 12:46:37;;;;;;;1.80;0.35;;;22.30;73.40;;;;;;4996718;28;20050;-73
2022/05/24 12:49:16;;;;;;;0.57;0.30;;;21.70;75.70;;;;;;4993886;28;20038;-73
2022/05/24 12:51:42;;;;;;;1.38;0.50;;;21.60;77.50;;;;;;5003153;28;20068;-73
2022/05/24 12:54:26;;;;;;;0.98;0.40;;;21.70;79.50;;;;;;5008582;28;20053;-74
2022/05/24 12:57:04;;;;;;;1.85;0.43;;;21.70;73.30;;;;;;5008381;28;20034;-74
2022/05/24 12:59:36;;;;;;;0.40;0.30;;;21.70;74.30;;;;;;5000390;28;20030;-74
2022/05/24 13:02:25;;;;;;;1.27;0.40;;;21.70;75.10;;;;;;5005235;28;20045;-73
2022/05/24 13:04:51;;;;;;;1.70;0.47;;;21.90;73.20;;;;;;4999703;28;20521;-73
2022/05/24 13:07:44;;;;;;;3.55;0.40;;;22.10;75.20;;;;;;5002557;28;20041;-73
2022/05/24 13:10:33;;;;;;;1.65;0.77;;;22.10;75.60;;;;;;5000914;28;20045;-73
2022/05/24 13:13:19;;;;;;;2.08;0.40;;;22.10;77.50;;;;;;5002535;28;20108;-73
2022/05/24 13:15:54;;;;;;;1.58;0.40;;;22.10;78.00;;;;;;4993499;28;20092;-73
2022/05/24 13:18:22;;;;;;;1.60;0.40;;;22.20;78.00;;;;;;5007767;28;20038;-72
2022/05/24 13:20:51;;;;;;;3.72;0.40;;;21.90;80.40;;;;;;5005915;28;20553;-72
2022/05/24 13:23:16;;;;;;;1.65;0.40;;;21.70;81.50;;;;;;5001113;28;20550;-72
2022/05/24 13:26:11;;;;;;;1.52;0.32;;;21.30;85.90;;;;;;5002165;28;20025;-73
2022/05/24 13:28:57;;;;;;;1.55;0.40;;;20.80;81.20;;;;;;5007124;28;20056;-72